Terminal Aerodrome Forecast
Issued by NWS

Home | Current Version | Previous Version | Graphics & Text | Print | Product List | Glossary On
Versions: 1 2 3 4 5 6 7 8 9 10 11 12 13 14 15 16 17 18 19
000
FTUS43 KMPX 251739
TAFRNH
TAF
KRNH 251739Z 2518/2618 17012G19KT P6SM BKN015
     FM252100 18010KT P6SM SCT020 SCT150
     FM260200 18006KT 6SM SHRA VCTS SCT040 OVC070CB
      TEMPO 2604/2608 2SM TSRA SCT020CB OVC040
     FM260900 VRB03KT P6SM OVC040
     FM261200 VRB03KT P6SM OVC020=

USA.gov is the U.S. government's official web portal to all federal, state and local government web resources and services.